Time;durP1;ratioP1;P1;durP2;ratioP2;P2;SDS_P1;SDS_P2;PMS_P1;PMS_P2;Temp;Humidity;BMP_temperature;BMP_pressure;BME280_temperature;BME280_humidity;BME280_pressure;Samples;Min_cycle;Max_cycle;Signal;HPM_P1;HPM_P2
2021/08/26 00:00:20;;;;;;;11.3;7.450001;;;;;;;11.82;76.4707;95088.2;;;;
2021/08/26 00:05:43;;;;;;;11.3;7.450001;;;;;;;11.82;76.4707;95088.2;;;;
2021/08/26 00:06:44;;;;;;;11.3;7.450001;;;;;;;11.82;76.4707;95088.2;;;;
2021/08/26 00:07:45;;;;;;;11.3;7.450001;;;;;;;11.82;76.4707;95088.2;;;;
2021/08/26 00:08:46;;;;;;;9.299999;7.3;;;;;;;11.74;77.16504;95071.44;;;;
2021/08/26 00:09:48;;;;;;;9.299999;7.3;;;;;;;11.74;77.16504;95071.44;;;;
2021/08/26 00:10:48;;;;;;;9.299999;7.3;;;;;;;11.74;77.16504;95071.44;;;;
2021/08/26 00:11:51;;;;;;;9.299999;7.3;;;;;;;11.74;77.16504;95071.44;;;;
2021/08/26 00:12:52;;;;;;;9.299999;7.3;;;;;;;11.74;77.16504;95071.44;;;;
2021/08/26 00:13:53;;;;;;;9.299999;7.3;;;;;;;11.74;77.16504;95071.44;;;;
2021/08/26 00:14:54;;;;;;;9.299999;7.3;;;;;;;11.74;77.16504;95071.44;;;;
2021/08/26 00:15:56;;;;;;;9.299999;7.3;;;;;;;11.74;77.16504;95071.44;;;;
2021/08/26 00:16:56;;;;;;;9.299999;7.3;;;;;;;11.74;77.16504;95071.44;;;;
2021/08/26 00:17:58;;;;;;;9.299999;7.3;;;;;;;11.74;77.16504;95071.44;;;;
2021/08/26 00:18:59;;;;;;;9.299999;7.3;;;;;;;11.74;77.16504;95071.44;;;;
2021/08/26 00:19:59;;;;;;;11.8;8.1;;;;;;;11.61;77.78516;95041.47;;;;
2021/08/26 00:21:00;;;;;;;11.8;8.1;;;;;;;11.61;77.78516;95041.47;;;;
2021/08/26 00:22:02;;;;;;;11.8;8.1;;;;;;;11.61;77.78516;95041.47;;;;
2021/08/26 00:23:03;;;;;;;11.8;8.1;;;;;;;11.61;77.78516;95041.47;;;;
2021/08/26 00:24:03;;;;;;;11.8;8.1;;;;;;;11.61;77.78516;95041.47;;;;
2021/08/26 00:25:05;;;;;;;11.8;8.1;;;;;;;11.61;77.78516;95041.47;;;;
2021/08/26 00:26:07;;;;;;;11.8;8.1;;;;;;;11.61;77.78516;95041.47;;;;
2021/08/26 00:27:07;;;;;;;11.8;8.1;;;;;;;11.61;77.78516;95041.47;;;;
2021/08/26 00:28:08;;;;;;;11.8;8.1;;;;;;;11.61;77.78516;95041.47;;;;
2021/08/26 00:29:08;;;;;;;11.8;8.1;;;;;;;11.61;77.78516;95041.47;;;;
2021/08/26 00:30:09;;;;;;;9.949999;8.05;;;;;;;11.55;78.59961;95025.28;;;;
2021/08/26 00:31:10;;;;;;;9.949999;8.05;;;;;;;11.55;78.59961;95025.28;;;;
2021/08/26 00:32:11;;;;;;;9.949999;8.05;;;;;;;11.55;78.59961;95025.28;;;;
2021/08/26 00:33:11;;;;;;;9.949999;8.05;;;;;;;11.55;78.59961;95025.28;;;;
2021/08/26 00:34:12;;;;;;;9.949999;8.05;;;;;;;11.55;78.59961;95025.28;;;;
2021/08/26 00:35:13;;;;;;;9.949999;8.05;;;;;;;11.55;78.59961;95025.28;;;;
2021/08/26 00:36:13;;;;;;;9.949999;8.05;;;;;;;11.55;78.59961;95025.28;;;;
2021/08/26 00:37:14;;;;;;;9.949999;8.05;;;;;;;11.55;78.59961;95025.28;;;;
2021/08/26 00:38:14;;;;;;;9.949999;8.05;;;;;;;11.55;78.59961;95025.28;;;;
2021/08/26 00:39:15;;;;;;;9.949999;8.05;;;;;;;11.55;78.59961;95025.28;;;;
2021/08/26 00:40:15;;;;;;;9.949999;8.05;;;;;;;11.55;78.59961;95025.28;;;;
2021/08/26 00:41:16;;;;;;;10.7;8.4;;;;;;;11.48;79.27148;95027.87;;;;
2021/08/26 00:42:17;;;;;;;10.7;8.4;;;;;;;11.48;79.27148;95027.87;;;;
2021/08/26 00:43:17;;;;;;;10.7;8.4;;;;;;;11.48;79.27148;95027.87;;;;
2021/08/26 00:44:18;;;;;;;10.7;8.4;;;;;;;11.48;79.27148;95027.87;;;;
2021/08/26 00:45:19;;;;;;;10.7;8.4;;;;;;;11.48;79.27148;95027.87;;;;
2021/08/26 00:46:19;;;;;;;10.7;8.4;;;;;;;11.48;79.27148;95027.87;;;;
2021/08/26 00:47:20;;;;;;;10.7;8.4;;;;;;;11.48;79.27148;95027.87;;;;
2021/08/26 00:48:22;;;;;;;10.7;8.4;;;;;;;11.48;79.27148;95027.87;;;;
2021/08/26 00:49:23;;;;;;;10.7;8.4;;;;;;;11.48;79.27148;95027.87;;;;
2021/08/26 00:50:26;;;;;;;10.7;8.4;;;;;;;11.48;79.27148;95027.87;;;;
2021/08/26 00:51:27;;;;;;;11.95;9.45;;;;;;;11.36;79.97754;95017.28;;;;
2021/08/26 00:52:30;;;;;;;11.95;9.45;;;;;;;11.36;79.97754;95017.28;;;;
2021/08/26 00:53:31;;;;;;;11.95;9.45;;;;;;;11.36;79.97754;95017.28;;;;
2021/08/26 00:54:32;;;;;;;11.95;9.45;;;;;;;11.36;79.97754;95017.28;;;;
2021/08/26 00:55:32;;;;;;;11.95;9.45;;;;;;;11.36;79.97754;95017.28;;;;
2021/08/26 00:56:33;;;;;;;11.95;9.45;;;;;;;11.36;79.97754;95017.28;;;;
2021/08/26 00:57:34;;;;;;;11.95;9.45;;;;;;;11.36;79.97754;95017.28;;;;
2021/08/26 00:58:35;;;;;;;11.95;9.45;;;;;;;11.36;79.97754;95017.28;;;;
2021/08/26 00:59:36;;;;;;;11.95;9.45;;;;;;;11.36;79.97754;95017.28;;;;
2021/08/26 01:00:36;;;;;;;11.95;9.45;;;;;;;11.36;79.97754;95017.28;;;;
2021/08/26 01:01:38;;;;;;;11.95;9.45;;;;;;;11.36;79.97754;95017.28;;;;
2021/08/26 01:02:45;;;;;;;10.05;8.849999;;;;;;;11.35;80.67285;95000.23;;;;
2021/08/26 01:03:55;;;;;;;10.05;8.849999;;;;;;;11.35;80.67285;95000.23;;;;
2021/08/26 01:05:02;;;;;;;10.05;8.849999;;;;;;;11.35;80.67285;95000.23;;;;
2021/08/26 01:06:11;;;;;;;10.05;8.849999;;;;;;;11.35;80.67285;95000.23;;;;
2021/08/26 01:07:16;;;;;;;10.05;8.849999;;;;;;;11.35;80.67285;95000.23;;;;
2021/08/26 01:08:24;;;;;;;10.05;8.849999;;;;;;;11.35;80.67285;95000.23;;;;
2021/08/26 01:09:32;;;;;;;10.05;8.849999;;;;;;;11.35;80.67285;95000.23;;;;
2021/08/26 01:10:41;;;;;;;10.05;8.849999;;;;;;;11.35;80.67285;95000.23;;;;
2021/08/26 01:11:46;;;;;;;10.05;8.849999;;;;;;;11.35;80.67285;95000.23;;;;
2021/08/26 01:12:48;;;;;;;11.35;9.700001;;;;;;;11.38;81.13672;94980;;;;
2021/08/26 01:13:53;;;;;;;11.35;9.700001;;;;;;;11.38;81.13672;94980;;;;
2021/08/26 01:14:56;;;;;;;11.35;9.700001;;;;;;;11.38;81.13672;94980;;;;
2021/08/26 01:15:57;;;;;;;11.35;9.700001;;;;;;;11.38;81.13672;94980;;;;
2021/08/26 01:17:06;;;;;;;11.35;9.700001;;;;;;;11.38;81.13672;94980;;;;
2021/08/26 01:18:07;;;;;;;11.35;9.700001;;;;;;;11.38;81.13672;94980;;;;
2021/08/26 01:19:07;;;;;;;11.35;9.700001;;;;;;;11.38;81.13672;94980;;;;
2021/08/26 01:20:08;;;;;;;11.35;9.700001;;;;;;;11.38;81.13672;94980;;;;
2021/08/26 01:21:09;;;;;;;11.35;9.700001;;;;;;;11.38;81.13672;94980;;;;
2021/08/26 01:22:11;;;;;;;11.35;9.700001;;;;;;;11.38;81.13672;94980;;;;
2021/08/26 01:23:12;;;;;;;12.15;10.35;;;;;;;11.4;81.75098;94985.47;;;;
2021/08/26 01:24:13;;;;;;;12.15;10.35;;;;;;;11.4;81.75098;94985.47;;;;
2021/08/26 01:25:17;;;;;;;12.15;10.35;;;;;;;11.4;81.75098;94985.47;;;;
2021/08/26 01:26:21;;;;;;;12.15;10.35;;;;;;;11.4;81.75098;94985.47;;;;
2021/08/26 01:27:26;;;;;;;12.15;10.35;;;;;;;11.4;81.75098;94985.47;;;;
2021/08/26 01:28:32;;;;;;;12.15;10.35;;;;;;;11.4;81.75098;94985.47;;;;
2021/08/26 01:29:35;;;;;;;12.15;10.35;;;;;;;11.4;81.75098;94985.47;;;;
2021/08/26 01:30:38;;;;;;;12.15;10.35;;;;;;;11.4;81.75098;94985.47;;;;
2021/08/26 01:31:39;;;;;;;12.15;10.35;;;;;;;11.4;81.75098;94985.47;;;;
2021/08/26 01:32:40;;;;;;;12.15;10.35;;;;;;;11.4;81.75098;94985.47;;;;
2021/08/26 01:33:41;;;;;;;12.15;10.35;;;;;;;11.4;81.75098;94985.47;;;;
2021/08/26 01:34:42;;;;;;;12.7;10.85;;;;;;;11.43;82.59277;94978.61;;;;
2021/08/26 01:35:43;;;;;;;12.7;10.85;;;;;;;11.43;82.59277;94978.61;;;;
2021/08/26 01:36:47;;;;;;;12.7;10.85;;;;;;;11.43;82.59277;94978.61;;;;
2021/08/26 01:37:47;;;;;;;12.7;10.85;;;;;;;11.43;82.59277;94978.61;;;;
2021/08/26 01:38:50;;;;;;;12.7;10.85;;;;;;;11.43;82.59277;94978.61;;;;
2021/08/26 01:39:50;;;;;;;12.7;10.85;;;;;;;11.43;82.59277;94978.61;;;;
2021/08/26 01:40:52;;;;;;;12.7;10.85;;;;;;;11.43;82.59277;94978.61;;;;
2021/08/26 01:41:53;;;;;;;12.7;10.85;;;;;;;11.43;82.59277;94978.61;;;;
2021/08/26 01:42:55;;;;;;;12.7;10.85;;;;;;;11.43;82.59277;94978.61;;;;
2021/08/26 01:43:55;;;;;;;12.7;10.85;;;;;;;11.43;82.59277;94978.61;;;;
2021/08/26 01:44:56;;;;;;;12.7;11.3;;;;;;;11.6;83.20117;94973.97;;;;
2021/08/26 01:45:57;;;;;;;12.7;11.3;;;;;;;11.6;83.20117;94973.97;;;;
2021/08/26 01:46:57;;;;;;;12.7;11.3;;;;;;;11.6;83.20117;94973.97;;;;
2021/08/26 01:48:04;;;;;;;12.7;11.3;;;;;;;11.6;83.20117;94973.97;;;;
2021/08/26 01:49:05;;;;;;;12.7;11.3;;;;;;;11.6;83.20117;94973.97;;;;
2021/08/26 01:50:05;;;;;;;12.7;11.3;;;;;;;11.6;83.20117;94973.97;;;;
2021/08/26 01:51:07;;;;;;;12.7;11.3;;;;;;;11.6;83.20117;94973.97;;;;
2021/08/26 01:52:07;;;;;;;12.7;11.3;;;;;;;11.6;83.20117;94973.97;;;;
2021/08/26 01:53:08;;;;;;;12.7;11.3;;;;;;;11.6;83.20117;94973.97;;;;
2021/08/26 01:54:08;;;;;;;12.7;11.3;;;;;;;11.6;83.20117;94973.97;;;;
2021/08/26 01:55:09;;;;;;;11.25;10;;;;;;;11.81;83.68066;94970.11;;;;
2021/08/26 01:56:10;;;;;;;11.25;10;;;;;;;11.81;83.68066;94970.11;;;;
2021/08/26 01:57:11;;;;;;;11.25;10;;;;;;;11.81;83.68066;94970.11;;;;
2021/08/26 01:58:11;;;;;;;11.25;10;;;;;;;11.81;83.68066;94970.11;;;;
2021/08/26 01:59:12;;;;;;;11.25;10;;;;;;;11.81;83.68066;94970.11;;;;
2021/08/26 02:00:13;;;;;;;11.25;10;;;;;;;11.81;83.68066;94970.11;;;;
2021/08/26 02:01:14;;;;;;;11.25;10;;;;;;;11.81;83.68066;94970.11;;;;
2021/08/26 02:02:15;;;;;;;11.25;10;;;;;;;11.81;83.68066;94970.11;;;;
2021/08/26 02:03:16;;;;;;;11.25;10;;;;;;;11.81;83.68066;94970.11;;;;
2021/08/26 02:04:16;;;;;;;11.25;10;;;;;;;11.81;83.68066;94970.11;;;;
2021/08/26 02:05:17;;;;;;;11.25;10;;;;;;;11.81;83.68066;94970.11;;;;
2021/08/26 02:06:17;;;;;;;11.2;10;;;;;;;11.99;84.09961;94977.92;;;;
2021/08/26 02:07:18;;;;;;;11.2;10;;;;;;;11.99;84.09961;94977.92;;;;
2021/08/26 02:08:19;;;;;;;11.2;10;;;;;;;11.99;84.09961;94977.92;;;;
2021/08/26 02:09:19;;;;;;;11.2;10;;;;;;;11.99;84.09961;94977.92;;;;
2021/08/26 02:10:20;;;;;;;11.2;10;;;;;;;11.99;84.09961;94977.92;;;;
2021/08/26 02:11:21;;;;;;;11.2;10;;;;;;;11.99;84.09961;94977.92;;;;
2021/08/26 02:12:21;;;;;;;11.2;10;;;;;;;11.99;84.09961;94977.92;;;;
2021/08/26 02:13:23;;;;;;;11.2;10;;;;;;;11.99;84.09961;94977.92;;;;
2021/08/26 02:14:23;;;;;;;11.2;10;;;;;;;11.99;84.09961;94977.92;;;;
2021/08/26 02:15:24;;;;;;;11.2;10;;;;;;;11.99;84.09961;94977.92;;;;
2021/08/26 02:16:25;;;;;;;11.2;10;;;;;;;11.99;84.09961;94977.92;;;;
2021/08/26 02:17:25;;;;;;;13.05;9.950001;;;;;;;12.16;84.3877;94963.9;;;;
2021/08/26 02:18:26;;;;;;;13.05;9.950001;;;;;;;12.16;84.3877;94963.9;;;;
2021/08/26 02:19:26;;;;;;;13.05;9.950001;;;;;;;12.16;84.3877;94963.9;;;;
2021/08/26 02:20:27;;;;;;;13.05;9.950001;;;;;;;12.16;84.3877;94963.9;;;;
2021/08/26 02:21:28;;;;;;;13.05;9.950001;;;;;;;12.16;84.3877;94963.9;;;;
2021/08/26 02:22:28;;;;;;;13.05;9.950001;;;;;;;12.16;84.3877;94963.9;;;;
2021/08/26 02:23:29;;;;;;;13.05;9.950001;;;;;;;12.16;84.3877;94963.9;;;;
2021/08/26 02:24:30;;;;;;;13.05;9.950001;;;;;;;12.16;84.3877;94963.9;;;;
2021/08/26 02:25:31;;;;;;;13.05;9.950001;;;;;;;12.16;84.3877;94963.9;;;;
2021/08/26 02:26:31;;;;;;;13.05;9.950001;;;;;;;12.16;84.3877;94963.9;;;;
2021/08/26 02:27:32;;;;;;;11.8;9.500001;;;;;;;12.35;84.49902;94956.66;;;;
2021/08/26 02:28:33;;;;;;;11.8;9.500001;;;;;;;12.35;84.49902;94956.66;;;;
2021/08/26 02:29:34;;;;;;;11.8;9.500001;;;;;;;12.35;84.49902;94956.66;;;;
2021/08/26 02:30:34;;;;;;;11.8;9.500001;;;;;;;12.35;84.49902;94956.66;;;;
2021/08/26 02:31:35;;;;;;;11.8;9.500001;;;;;;;12.35;84.49902;94956.66;;;;
2021/08/26 02:32:36;;;;;;;11.8;9.500001;;;;;;;12.35;84.49902;94956.66;;;;
2021/08/26 02:33:36;;;;;;;11.8;9.500001;;;;;;;12.35;84.49902;94956.66;;;;
2021/08/26 02:34:37;;;;;;;11.8;9.500001;;;;;;;12.35;84.49902;94956.66;;;;
2021/08/26 02:35:37;;;;;;;11.8;9.500001;;;;;;;12.35;84.49902;94956.66;;;;
2021/08/26 02:36:38;;;;;;;11.8;9.500001;;;;;;;12.35;84.49902;94956.66;;;;
2021/08/26 02:37:38;;;;;;;11.8;9.500001;;;;;;;12.35;84.49902;94956.66;;;;
2021/08/26 02:38:39;;;;;;;10.25;9.000001;;;;;;;12.48;84.59082;94951.67;;;;
2021/08/26 02:39:40;;;;;;;10.25;9.000001;;;;;;;12.48;84.59082;94951.67;;;;
2021/08/26 02:40:40;;;;;;;10.25;9.000001;;;;;;;12.48;84.59082;94951.67;;;;
2021/08/26 02:41:41;;;;;;;10.25;9.000001;;;;;;;12.48;84.59082;94951.67;;;;
2021/08/26 02:42:41;;;;;;;10.25;9.000001;;;;;;;12.48;84.59082;94951.67;;;;
2021/08/26 02:43:42;;;;;;;10.25;9.000001;;;;;;;12.48;84.59082;94951.67;;;;
2021/08/26 02:44:43;;;;;;;10.25;9.000001;;;;;;;12.48;84.59082;94951.67;;;;
2021/08/26 02:45:43;;;;;;;10.25;9.000001;;;;;;;12.48;84.59082;94951.67;;;;
2021/08/26 02:46:43;;;;;;;10.25;9.000001;;;;;;;12.48;84.59082;94951.67;;;;
2021/08/26 02:47:44;;;;;;;10.25;9.000001;;;;;;;12.48;84.59082;94951.67;;;;
2021/08/26 02:48:44;;;;;;;10.9;9.100001;;;;;;;12.54;84.80273;94939.39;;;;
2021/08/26 02:49:45;;;;;;;10.9;9.100001;;;;;;;12.54;84.80273;94939.39;;;;
2021/08/26 02:50:45;;;;;;;10.9;9.100001;;;;;;;12.54;84.80273;94939.39;;;;
2021/08/26 02:51:46;;;;;;;10.9;9.100001;;;;;;;12.54;84.80273;94939.39;;;;
2021/08/26 02:52:46;;;;;;;10.9;9.100001;;;;;;;12.54;84.80273;94939.39;;;;
2021/08/26 02:53:47;;;;;;;10.9;9.100001;;;;;;;12.54;84.80273;94939.39;;;;
2021/08/26 02:54:48;;;;;;;10.9;9.100001;;;;;;;12.54;84.80273;94939.39;;;;
2021/08/26 02:55:48;;;;;;;10.9;9.100001;;;;;;;12.54;84.80273;94939.39;;;;
2021/08/26 02:56:49;;;;;;;10.9;9.100001;;;;;;;12.54;84.80273;94939.39;;;;
2021/08/26 02:57:49;;;;;;;10.9;9.100001;;;;;;;12.54;84.80273;94939.39;;;;
2021/08/26 02:58:50;;;;;;;10.9;9.100001;;;;;;;12.54;84.80273;94939.39;;;;
2021/08/26 02:59:50;;;;;;;11.15;9.15;;;;;;;12.52;85.14453;94929.75;;;;
2021/08/26 03:00:51;;;;;;;11.15;9.15;;;;;;;12.52;85.14453;94929.75;;;;
2021/08/26 03:01:51;;;;;;;11.15;9.15;;;;;;;12.52;85.14453;94929.75;;;;
2021/08/26 03:02:52;;;;;;;11.15;9.15;;;;;;;12.52;85.14453;94929.75;;;;
2021/08/26 03:03:52;;;;;;;11.15;9.15;;;;;;;12.52;85.14453;94929.75;;;;
2021/08/26 03:04:53;;;;;;;11.15;9.15;;;;;;;12.52;85.14453;94929.75;;;;
2021/08/26 03:05:54;;;;;;;11.15;9.15;;;;;;;12.52;85.14453;94929.75;;;;
2021/08/26 03:06:54;;;;;;;11.15;9.15;;;;;;;12.52;85.14453;94929.75;;;;
2021/08/26 03:07:56;;;;;;;11.15;9.15;;;;;;;12.52;85.14453;94929.75;;;;
2021/08/26 03:08:56;;;;;;;11.15;9.15;;;;;;;12.52;85.14453;94929.75;;;;
2021/08/26 03:09:57;;;;;;;11.3;8.900001;;;;;;;12.54;85.56543;94911.78;;;;
2021/08/26 03:10:57;;;;;;;11.3;8.900001;;;;;;;12.54;85.56543;94911.78;;;;
2021/08/26 03:11:58;;;;;;;11.3;8.900001;;;;;;;12.54;85.56543;94911.78;;;;
2021/08/26 03:12:59;;;;;;;11.3;8.900001;;;;;;;12.54;85.56543;94911.78;;;;
2021/08/26 03:13:59;;;;;;;11.3;8.900001;;;;;;;12.54;85.56543;94911.78;;;;
2021/08/26 03:15:00;;;;;;;11.3;8.900001;;;;;;;12.54;85.56543;94911.78;;;;
2021/08/26 03:16:01;;;;;;;11.3;8.900001;;;;;;;12.54;85.56543;94911.78;;;;
2021/08/26 03:17:02;;;;;;;11.3;8.900001;;;;;;;12.54;85.56543;94911.78;;;;
2021/08/26 03:18:03;;;;;;;11.3;8.900001;;;;;;;12.54;85.56543;94911.78;;;;
2021/08/26 03:19:03;;;;;;;11.3;8.900001;;;;;;;12.54;85.56543;94911.78;;;;
2021/08/26 03:20:04;;;;;;;11.3;8.900001;;;;;;;12.54;85.56543;94911.78;;;;
2021/08/26 03:21:06;;;;;;;10.5;8.65;;;;;;;12.59;85.91797;94912.38;;;;
2021/08/26 03:22:06;;;;;;;10.5;8.65;;;;;;;12.59;85.91797;94912.38;;;;
2021/08/26 03:23:06;;;;;;;10.5;8.65;;;;;;;12.59;85.91797;94912.38;;;;
2021/08/26 03:24:07;;;;;;;10.5;8.65;;;;;;;12.59;85.91797;94912.38;;;;
2021/08/26 03:25:07;;;;;;;10.5;8.65;;;;;;;12.59;85.91797;94912.38;;;;
2021/08/26 03:26:09;;;;;;;10.5;8.65;;;;;;;12.59;85.91797;94912.38;;;;
2021/08/26 03:27:09;;;;;;;10.5;8.65;;;;;;;12.59;85.91797;94912.38;;;;
2021/08/26 03:28:10;;;;;;;10.5;8.65;;;;;;;12.59;85.91797;94912.38;;;;
2021/08/26 03:29:11;;;;;;;10.5;8.65;;;;;;;12.59;85.91797;94912.38;;;;
2021/08/26 03:30:11;;;;;;;10.5;8.65;;;;;;;12.59;85.91797;94912.38;;;;
2021/08/26 03:31:12;;;;;;;10.4;8.700001;;;;;;;12.6;85.94043;94887.86;;;;
2021/08/26 03:32:13;;;;;;;10.4;8.700001;;;;;;;12.6;85.94043;94887.86;;;;
2021/08/26 03:33:14;;;;;;;10.4;8.700001;;;;;;;12.6;85.94043;94887.86;;;;
2021/08/26 03:34:14;;;;;;;10.4;8.700001;;;;;;;12.6;85.94043;94887.86;;;;
2021/08/26 03:35:15;;;;;;;10.4;8.700001;;;;;;;12.6;85.94043;94887.86;;;;
2021/08/26 03:36:15;;;;;;;10.4;8.700001;;;;;;;12.6;85.94043;94887.86;;;;
2021/08/26 03:37:16;;;;;;;10.4;8.700001;;;;;;;12.6;85.94043;94887.86;;;;
2021/08/26 03:38:16;;;;;;;10.4;8.700001;;;;;;;12.6;85.94043;94887.86;;;;
2021/08/26 03:39:17;;;;;;;10.4;8.700001;;;;;;;12.6;85.94043;94887.86;;;;
2021/08/26 03:40:17;;;;;;;10.4;8.700001;;;;;;;12.6;85.94043;94887.86;;;;
2021/08/26 03:41:18;;;;;;;10.4;8.700001;;;;;;;12.6;85.94043;94887.86;;;;
2021/08/26 03:42:19;;;;;;;10.6;8.55;;;;;;;12.63;86.16016;94869.72;;;;
2021/08/26 03:43:19;;;;;;;10.6;8.55;;;;;;;12.63;86.16016;94869.72;;;;
2021/08/26 03:44:20;;;;;;;10.6;8.55;;;;;;;12.63;86.16016;94869.72;;;;
2021/08/26 03:45:20;;;;;;;10.6;8.55;;;;;;;12.63;86.16016;94869.72;;;;
2021/08/26 03:46:21;;;;;;;10.6;8.55;;;;;;;12.63;86.16016;94869.72;;;;
2021/08/26 03:47:21;;;;;;;10.6;8.55;;;;;;;12.63;86.16016;94869.72;;;;
2021/08/26 03:48:22;;;;;;;10.6;8.55;;;;;;;12.63;86.16016;94869.72;;;;
2021/08/26 03:49:22;;;;;;;10.6;8.55;;;;;;;12.63;86.16016;94869.72;;;;
2021/08/26 03:50:23;;;;;;;10.6;8.55;;;;;;;12.63;86.16016;94869.72;;;;
2021/08/26 03:51:23;;;;;;;10.6;8.55;;;;;;;12.63;86.16016;94869.72;;;;
2021/08/26 03:52:24;;;;;;;10.6;8.55;;;;;;;12.63;86.16016;94869.72;;;;
2021/08/26 03:53:24;;;;;;;10.3;8.499999;;;;;;;12.65;86.16406;94869.34;;;;
2021/08/26 03:54:25;;;;;;;10.3;8.499999;;;;;;;12.65;86.16406;94869.34;;;;
2021/08/26 03:55:25;;;;;;;10.3;8.499999;;;;;;;12.65;86.16406;94869.34;;;;
2021/08/26 03:56:26;;;;;;;10.3;8.499999;;;;;;;12.65;86.16406;94869.34;;;;
2021/08/26 03:57:27;;;;;;;10.3;8.499999;;;;;;;12.65;86.16406;94869.34;;;;
2021/08/26 03:58:27;;;;;;;10.3;8.499999;;;;;;;12.65;86.16406;94869.34;;;;
2021/08/26 03:59:28;;;;;;;10.3;8.499999;;;;;;;12.65;86.16406;94869.34;;;;
2021/08/26 04:00:28;;;;;;;10.3;8.499999;;;;;;;12.65;86.16406;94869.34;;;;
2021/08/26 04:01:29;;;;;;;10.3;8.499999;;;;;;;12.65;86.16406;94869.34;;;;
2021/08/26 04:02:29;;;;;;;10.3;8.499999;;;;;;;12.65;86.16406;94869.34;;;;
2021/08/26 04:03:30;;;;;;;11.1;8.700001;;;;;;;12.67;86.28809;94868.55;;;;
2021/08/26 04:04:30;;;;;;;11.1;8.700001;;;;;;;12.67;86.28809;94868.55;;;;
2021/08/26 04:05:31;;;;;;;11.1;8.700001;;;;;;;12.67;86.28809;94868.55;;;;
2021/08/26 04:06:31;;;;;;;11.1;8.700001;;;;;;;12.67;86.28809;94868.55;;;;
2021/08/26 04:07:32;;;;;;;11.1;8.700001;;;;;;;12.67;86.28809;94868.55;;;;
2021/08/26 04:08:32;;;;;;;11.1;8.700001;;;;;;;12.67;86.28809;94868.55;;;;
2021/08/26 04:09:33;;;;;;;11.1;8.700001;;;;;;;12.67;86.28809;94868.55;;;;
2021/08/26 04:10:34;;;;;;;11.1;8.700001;;;;;;;12.67;86.28809;94868.55;;;;
2021/08/26 04:11:34;;;;;;;11.1;8.700001;;;;;;;12.67;86.28809;94868.55;;;;
2021/08/26 04:12:35;;;;;;;11.1;8.700001;;;;;;;12.67;86.28809;94868.55;;;;
2021/08/26 04:13:35;;;;;;;11.1;8.700001;;;;;;;12.67;86.28809;94868.55;;;;
2021/08/26 04:14:36;;;;;;;10;8.4;;;;;;;12.61;86.38379;94860.92;;;;
2021/08/26 04:15:36;;;;;;;10;8.4;;;;;;;12.61;86.38379;94860.92;;;;
2021/08/26 04:16:37;;;;;;;10;8.4;;;;;;;12.61;86.38379;94860.92;;;;
2021/08/26 04:17:37;;;;;;;10;8.4;;;;;;;12.61;86.38379;94860.92;;;;
2021/08/26 04:18:37;;;;;;;10;8.4;;;;;;;12.61;86.38379;94860.92;;;;
2021/08/26 04:19:38;;;;;;;10;8.4;;;;;;;12.61;86.38379;94860.92;;;;
2021/08/26 04:20:38;;;;;;;10;8.4;;;;;;;12.61;86.38379;94860.92;;;;
2021/08/26 04:21:39;;;;;;;10;8.4;;;;;;;12.61;86.38379;94860.92;;;;
2021/08/26 04:22:39;;;;;;;10;8.4;;;;;;;12.61;86.38379;94860.92;;;;
2021/08/26 04:23:40;;;;;;;10;8.4;;;;;;;12.61;86.38379;94860.92;;;;
2021/08/26 04:24:41;;;;;;;10.75;8.5;;;;;;;12.44;86.61816;94864.31;;;;
2021/08/26 04:25:41;;;;;;;10.75;8.5;;;;;;;12.44;86.61816;94864.31;;;;
2021/08/26 04:26:42;;;;;;;10.75;8.5;;;;;;;12.44;86.61816;94864.31;;;;
2021/08/26 04:27:43;;;;;;;10.75;8.5;;;;;;;12.44;86.61816;94864.31;;;;
2021/08/26 04:28:43;;;;;;;10.75;8.5;;;;;;;12.44;86.61816;94864.31;;;;
2021/08/26 04:29:44;;;;;;;10.75;8.5;;;;;;;12.44;86.61816;94864.31;;;;
2021/08/26 04:30:44;;;;;;;10.75;8.5;;;;;;;12.44;86.61816;94864.31;;;;
2021/08/26 04:31:45;;;;;;;10.75;8.5;;;;;;;12.44;86.61816;94864.31;;;;
2021/08/26 04:32:45;;;;;;;10.75;8.5;;;;;;;12.44;86.61816;94864.31;;;;
2021/08/26 04:33:46;;;;;;;10.75;8.5;;;;;;;12.44;86.61816;94864.31;;;;
2021/08/26 04:34:46;;;;;;;10.75;8.5;;;;;;;12.44;86.61816;94864.31;;;;
2021/08/26 04:35:47;;;;;;;9.65;8.5;;;;;;;12.33;86.93652;94878;;;;
2021/08/26 04:36:47;;;;;;;9.65;8.5;;;;;;;12.33;86.93652;94878;;;;
2021/08/26 04:37:48;;;;;;;9.65;8.5;;;;;;;12.33;86.93652;94878;;;;
2021/08/26 04:38:48;;;;;;;9.65;8.5;;;;;;;12.33;86.93652;94878;;;;
2021/08/26 04:39:49;;;;;;;9.65;8.5;;;;;;;12.33;86.93652;94878;;;;
2021/08/26 04:40:49;;;;;;;9.65;8.5;;;;;;;12.33;86.93652;94878;;;;
2021/08/26 04:41:49;;;;;;;9.65;8.5;;;;;;;12.33;86.93652;94878;;;;
2021/08/26 04:42:50;;;;;;;9.65;8.5;;;;;;;12.33;86.93652;94878;;;;
2021/08/26 04:43:51;;;;;;;9.65;8.5;;;;;;;12.33;86.93652;94878;;;;
2021/08/26 04:44:52;;;;;;;9.65;8.5;;;;;;;12.33;86.93652;94878;;;;
2021/08/26 04:45:52;;;;;;;11.15;8.999998;;;;;;;12.19;87.11328;94857.31;;;;
2021/08/26 04:46:53;;;;;;;11.15;8.999998;;;;;;;12.19;87.11328;94857.31;;;;
2021/08/26 04:47:53;;;;;;;11.15;8.999998;;;;;;;12.19;87.11328;94857.31;;;;
2021/08/26 04:48:53;;;;;;;11.15;8.999998;;;;;;;12.19;87.11328;94857.31;;;;
2021/08/26 04:49:54;;;;;;;11.15;8.999998;;;;;;;12.19;87.11328;94857.31;;;;
2021/08/26 04:50:54;;;;;;;11.15;8.999998;;;;;;;12.19;87.11328;94857.31;;;;
2021/08/26 04:51:55;;;;;;;11.15;8.999998;;;;;;;12.19;87.11328;94857.31;;;;
2021/08/26 04:52:55;;;;;;;11.15;8.999998;;;;;;;12.19;87.11328;94857.31;;;;
2021/08/26 04:53:56;;;;;;;11.15;8.999998;;;;;;;12.19;87.11328;94857.31;;;;
2021/08/26 04:54:56;;;;;;;11.15;8.999998;;;;;;;12.19;87.11328;94857.31;;;;
2021/08/26 04:55:57;;;;;;;11.15;8.999998;;;;;;;12.19;87.11328;94857.31;;;;
2021/08/26 04:56:58;;;;;;;9.650002;8.4;;;;;;;12.08;87.40137;94852.86;;;;
2021/08/26 04:57:58;;;;;;;9.650002;8.4;;;;;;;12.08;87.40137;94852.86;;;;
2021/08/26 04:58:59;;;;;;;9.650002;8.4;;;;;;;12.08;87.40137;94852.86;;;;
2021/08/26 04:59:59;;;;;;;9.650002;8.4;;;;;;;12.08;87.40137;94852.86;;;;
2021/08/26 05:01:00;;;;;;;9.650002;8.4;;;;;;;12.08;87.40137;94852.86;;;;
2021/08/26 05:02:00;;;;;;;9.650002;8.4;;;;;;;12.08;87.40137;94852.86;;;;
2021/08/26 05:03:03;;;;;;;9.650002;8.4;;;;;;;12.08;87.40137;94852.86;;;;
2021/08/26 05:04:04;;;;;;;9.650002;8.4;;;;;;;12.08;87.40137;94852.86;;;;
2021/08/26 05:05:05;;;;;;;9.650002;8.4;;;;;;;12.08;87.40137;94852.86;;;;
2021/08/26 05:06:06;;;;;;;9.650002;8.4;;;;;;;12.08;87.40137;94852.86;;;;
2021/08/26 05:07:07;;;;;;;9.650002;8.4;;;;;;;12.08;87.40137;94852.86;;;;
2021/08/26 05:08:07;;;;;;;10.9;9.099998;;;;;;;12.18;87.74121;94855.8;;;;
2021/08/26 05:09:08;;;;;;;10.9;9.099998;;;;;;;12.18;87.74121;94855.8;;;;
2021/08/26 05:10:08;;;;;;;10.9;9.099998;;;;;;;12.18;87.74121;94855.8;;;;
2021/08/26 05:11:09;;;;;;;10.9;9.099998;;;;;;;12.18;87.74121;94855.8;;;;
2021/08/26 05:12:17;;;;;;;10.9;9.099998;;;;;;;12.18;87.74121;94855.8;;;;
2021/08/26 05:13:17;;;;;;;10.9;9.099998;;;;;;;12.18;87.74121;94855.8;;;;
2021/08/26 05:14:18;;;;;;;10.9;9.099998;;;;;;;12.18;87.74121;94855.8;;;;
2021/08/26 05:15:18;;;;;;;10.9;9.099998;;;;;;;12.18;87.74121;94855.8;;;;
2021/08/26 05:16:19;;;;;;;10.9;9.099998;;;;;;;12.18;87.74121;94855.8;;;;
2021/08/26 05:17:19;;;;;;;10.9;9.099998;;;;;;;12.18;87.74121;94855.8;;;;
2021/08/26 05:18:20;;;;;;;10;8.599999;;;;;;;12.47;87.69434;94847.53;;;;
2021/08/26 05:19:20;;;;;;;10;8.599999;;;;;;;12.47;87.69434;94847.53;;;;
2021/08/26 05:20:21;;;;;;;10;8.599999;;;;;;;12.47;87.69434;94847.53;;;;
2021/08/26 05:21:21;;;;;;;10;8.599999;;;;;;;12.47;87.69434;94847.53;;;;
2021/08/26 05:22:23;;;;;;;10;8.599999;;;;;;;12.47;87.69434;94847.53;;;;
2021/08/26 05:23:23;;;;;;;10;8.599999;;;;;;;12.47;87.69434;94847.53;;;;
2021/08/26 05:24:24;;;;;;;10;8.599999;;;;;;;12.47;87.69434;94847.53;;;;
2021/08/26 05:25:24;;;;;;;10;8.599999;;;;;;;12.47;87.69434;94847.53;;;;
2021/08/26 05:26:25;;;;;;;10;8.599999;;;;;;;12.47;87.69434;94847.53;;;;
2021/08/26 05:27:26;;;;;;;10;8.599999;;;;;;;12.47;87.69434;94847.53;;;;
2021/08/26 05:28:26;;;;;;;10;8.599999;;;;;;;12.47;87.69434;94847.53;;;;
2021/08/26 05:29:27;;;;;;;10.35;8.75;;;;;;;12.76;87.53613;94847.21;;;;
2021/08/26 05:30:27;;;;;;;10.35;8.75;;;;;;;12.76;87.53613;94847.21;;;;
2021/08/26 05:31:28;;;;;;;10.35;8.75;;;;;;;12.76;87.53613;94847.21;;;;
2021/08/26 05:32:28;;;;;;;10.35;8.75;;;;;;;12.76;87.53613;94847.21;;;;
2021/08/26 05:33:28;;;;;;;10.35;8.75;;;;;;;12.76;87.53613;94847.21;;;;
2021/08/26 05:34:29;;;;;;;10.35;8.75;;;;;;;12.76;87.53613;94847.21;;;;
2021/08/26 05:35:29;;;;;;;10.35;8.75;;;;;;;12.76;87.53613;94847.21;;;;
2021/08/26 05:36:30;;;;;;;10.35;8.75;;;;;;;12.76;87.53613;94847.21;;;;
2021/08/26 05:37:30;;;;;;;10.35;8.75;;;;;;;12.76;87.53613;94847.21;;;;
2021/08/26 05:38:31;;;;;;;10.35;8.75;;;;;;;12.76;87.53613;94847.21;;;;
2021/08/26 05:39:31;;;;;;;10.35;8.75;;;;;;;12.76;87.53613;94847.21;;;;
2021/08/26 05:40:32;;;;;;;10.35;8.75;;;;;;;12.76;87.53613;94847.21;;;;
2021/08/26 05:41:33;;;;;;;10.35;8.75;;;;;;;12.76;87.53613;94847.21;;;;